Flight Track Log - Related Links

Times and Time Zones

All times are in EDT time to prevent confusion due to time zone crossing. See the N56SB flight status page for this flight to view local times or setup timezone preferences in your user account.

Time Position Orientation Groundspeed Altitude Reporting Facility
EDT Latitude Longitude Course Direction KTS MPH feet Rate Location/Type
Sun 12:22:23 PM 28.5500 -81.3167 41° Northeast 125 144 500  Level Orlando TRACON
Sun 12:23:17 PM 28.5833 -81.2833 41° Northeast 186 214 1,500 778 Climbing Orlando TRACON
Sun 12:24:11 PM 28.6167 -81.2333 53° Northeast 216 249 1,900 263 Climbing Orlando TRACON
Sun 12:25:11 PM 28.6833 -81.2333 360° North 212 244 2,000 500 Climbing Orlando TRACON
Sun 12:26:11 PM 28.7333 -81.2333 360° North 213 245 2,900 1,300 Climbing Orlando TRACON
Sun 12:27:11 PM 28.7833 -81.2833 319° Northwest 256 295 4,600 1,785 Climbing Orlando TRACON
Sun 12:28:12 PM 28.8333 -81.3500 311° West 241 277 6,500 2,529 Climbing Orlando TRACON
Sun 12:29:12 PM 28.8833 -81.4000 319° Northwest 216 249 9,700 2,650 Climbing Orlando TRACON
Sun 12:30:12 PM 28.9167 -81.4333 319° Northwest 200 230 11,800 1,792 Climbing Orlando TRACON
Sun 12:31:36 PM 28.9836 -81.5086 315° West 231 266 14,000 1,417 Climbing Jacksonville Center
Sun 12:32:36 PM 29.0383 -81.5672 317° Northwest 231 266 15,200 1,300 Climbing Jacksonville Center
Sun 12:34:36 PM 29.1956 -81.6153 345° North 278 320 17,900 1,367 Climbing Jacksonville Center
Sun 12:35:36 PM 29.2644 -81.6358 345° North 284 327 19,300 1,388 Climbing Jacksonville Center
Sun 12:36:37 PM 29.3419 -81.6561 347° North 284 327 20,700 850 Climbing Jacksonville Center
Sun 12:37:36 PM 29.4278 -81.6789 347° North 290 334 21,000 151 Climbing Jacksonville Center
Sun 12:38:36 PM 29.5219 -81.7042 347° North 320 368 21,000  Level Jacksonville Center
Sun 12:39:36 PM 29.6244 -81.7339 346° North 351 404 21,000 950 Level Jacksonville Center
Sun 12:40:36 PM 29.7167 -81.7567 348° North 353 406 22,900 1,000 Climbing Jacksonville Center
Sun 12:41:36 PM 29.8108 -81.7842 346° North 347 399 23,000 50 Climbing Jacksonville Center
Sun 12:42:37 PM 29.9111 -81.8094 348° North 347 399 23,000  Level Jacksonville Center
Sun 12:43:37 PM 30.0117 -81.8372 347° North 358 412 23,000 101 Level Jacksonville Center
Sun 12:44:36 PM 30.1142 -81.8625 348° North 368 423 23,200 958 Climbing Jacksonville Center
Sun 12:45:36 PM 30.2083 -81.8878 347° North 361 415 24,900 1,333 Climbing Jacksonville Center
Sun 12:47:36 PM 30.3842 -81.9558 342° North 328 377 27,200 1,067 Climbing Jacksonville Center
Sun 12:48:36 PM 30.4700 -81.9889 342° North 323 372 28,100 850 Climbing Jacksonville Center
Sun 12:49:36 PM 30.5683 -82.0311 340° North 323 372 28,900 750 Climbing Jacksonville Center
Sun 12:50:36 PM 30.6583 -82.0692 340° North 335 386 29,600 893 Climbing Jacksonville Center
Sun 12:51:37 PM 30.7483 -82.1022 342° North 340 391 30,700 700 Climbing Jacksonville Center
Sun 12:52:36 PM 30.8386 -82.1400 340° North 340 391 31,000 151 Climbing Jacksonville Center
Sun 12:53:36 PM 30.9347 -82.1781 341° North 352 405 31,000  Level Jacksonville Center
Sun 12:54:36 PM 31.0353 -82.2186 341° North 368 423 31,000  Level Jacksonville Center
Sun 12:55:36 PM 31.1378 -82.2592 341° North 374 430 31,000  Level Jacksonville Center
Sun 12:56:36 PM 31.2403 -82.2997 341° North 379 436 31,000 -50 Level Jacksonville Center
Sun 12:57:36 PM 31.3406 -82.3403 341° North 379 436 30,900 -300 Descending Jacksonville Center
Sun 12:58:36 PM 31.4472 -82.3789 343° North 384 442 30,400 -444 Descending Jacksonville Center
Sun 01:00:18 PM 31.6278 -82.4511 341° North 402 463 29,700 -444 Descending Atlanta Center
Sun 01:01:18 PM 31.7306 -82.4933 341° North 396 456 29,200 -350 Descending Atlanta Center
Sun 01:02:18 PM 31.8272 -82.5331 341° North 396 456 29,000 -100 Descending Atlanta Center
Sun 01:03:18 PM 31.9300 -82.5756 341° North 396 456 29,000  Level Atlanta Center
Sun 01:04:18 PM 32.0328 -82.6131 343° North 390 449 29,000  Level Atlanta Center
Sun 01:05:18 PM 32.1333 -82.6556 340° North 390 449 29,000 -100 Level Atlanta Center
Sun 01:06:18 PM 32.2319 -82.6958 341° North 390 449 28,800 -350 Descending Atlanta Center
Sun 01:07:18 PM 32.3367 -82.7383 341° North 390 449 28,300 -500 Descending Atlanta Center
Sun 01:08:18 PM 32.4414 -82.7811 341° North 390 449 27,800 -500 Descending Atlanta Center
Sun 01:09:18 PM 32.5442 -82.8242 341° North 390 449 27,300 -500 Descending Atlanta Center
Sun 01:10:18 PM 32.6325 -82.9017 324° Northwest 384 442 26,800 -500 Descending Atlanta Center
Sun 01:11:18 PM 32.7189 -82.9894 319° Northwest 397 457 26,300 -550 Descending Atlanta Center
Sun 01:12:18 PM 32.8031 -83.0725 320° Northwest 397 457 25,700 -1,350 Descending Atlanta Center
Sun 01:13:18 PM 32.8853 -83.1558 320° Northwest 392 451 23,600 -2,050 Descending Atlanta Center
Sun 01:14:18 PM 32.9650 -83.2367 320° Northwest 386 444 21,600 -2,050 Descending Atlanta Center
Sun 01:15:18 PM 33.0469 -83.3178 320° Northwest 386 444 19,500 -1,850 Descending Atlanta Center
Sun 01:16:18 PM 33.1225 -83.4014 317° Northwest 380 437 17,900 -1,900 Descending Atlanta Center
Sun 01:17:18 PM 33.1961 -83.4753 320° Northwest 356 410 15,700 -2,000 Descending Atlanta Center
Sun 01:18:18 PM 33.2694 -83.5519 319° Northwest 349 402 13,900 -1,966 Descending Atlanta Center
Sun 01:19:17 PM 33.3500 -83.6333 320° Northwest 338 389 11,800 -1,450 Descending Atlanta TRACON
Sun 01:20:18 PM 33.4200 -83.6953 324° Northwest 329 379 11,000 -744 Descending Atlanta Center
Sun 01:21:18 PM 33.4933 -83.7472 329° Northwest 309 356 10,300 -700 Descending Atlanta Center
Sun 01:22:18 PM 33.5644 -83.7969 330° Northwest 300 345 9,600 -700 Descending Atlanta Center
Sun 01:23:18 PM 33.6417 -83.8342 338° Northwest 295 339 8,900 -700 Descending Atlanta Center
Sun 01:24:18 PM 33.7272 -83.8539 349° North 295 339 8,200 -700 Descending Atlanta Center
Sun 01:25:18 PM 33.8086 -83.8789 346° North 300 345 7,500 -706 Descending Atlanta Center
Sun 01:26:17 PM 33.8833 -83.9167 337° Northwest 302 348 6,800 -706 Descending Atlanta TRACON
Sun 01:27:17 PM 33.9333 -83.9833 312° West 291 335 6,100 -400 Descending Atlanta TRACON
Sun 01:28:17 PM 33.9833 -84.0500 312° West 292 336 6,000 -50 Descending Atlanta TRACON
Sun 01:29:17 PM 34.0333 -84.1333 306° West 287 330 6,000  Level Atlanta TRACON
Sun 01:30:17 PM 34.0500 -84.2167 284° West 273 314 6,000  Level Atlanta TRACON
Sun 01:31:17 PM 34.0667 -84.3000 284° West 241 277 6,000 -400 Level Atlanta TRACON
Sun 01:32:17 PM 34.1000 -84.3667 301° West 247 284 5,200 -1,250 Descending Atlanta TRACON
Sun 01:33:17 PM 34.1000 -84.4500 270° West 235 270 3,500 -1,350 Descending Atlanta TRACON
Sun 01:34:17 PM 34.0667 -84.5167 239° Southwest 209 241 2,500 -600 Descending Atlanta TRACON
Sun 01:35:17 PM 34.0500 -84.5667 248° West 174 200 2,300 -250 Descending Atlanta TRACON
Sun 01:36:17 PM 34.0500 -84.6167 270° West 185 213 2,000 -200 Descending Atlanta TRACON
Sun 01:37:17 PM 34.0167 -84.6667 231° Southwest 127 146 1,900 -100 Descending Atlanta TRACON

Login

Don't have an account? Register now (free) for customized features, flight alerts, and more!